sensor_id;sensor_type;location;lat;lon;timestamp;pressure;altitude;pressure_sealevel;temperature;humidity
51439;BME280;38816;51.142;-0.974;2023-01-28T00:01:45;101688.56;;;1.96;100.00
51439;BME280;38816;51.142;-0.974;2023-01-28T00:04:10;101681.75;;;1.95;100.00
51439;BME280;38816;51.142;-0.974;2023-01-28T00:06:35;101689.88;;;2.02;100.00
51439;BME280;38816;51.142;-0.974;2023-01-28T00:09:02;101678.66;;;1.99;100.00
51439;BME280;38816;51.142;-0.974;2023-01-28T00:11:27;101674.34;;;1.98;100.00
51439;BME280;38816;51.142;-0.974;2023-01-28T00:13:53;101675.25;;;1.98;100.00
51439;BME280;38816;51.142;-0.974;2023-01-28T00:16:20;101683.72;;;1.99;100.00
51439;BME280;38816;51.142;-0.974;2023-01-28T00:18:47;101674.22;;;1.96;100.00
51439;BME280;38816;51.142;-0.974;2023-01-28T00:21:13;101666.03;;;1.89;100.00
51439;BME280;38816;51.142;-0.974;2023-01-28T00:23:40;101687.16;;;1.99;100.00
51439;BME280;38816;51.142;-0.974;2023-01-28T00:26:11;101676.31;;;1.90;100.00
51439;BME280;38816;51.142;-0.974;2023-01-28T00:28:37;101670.91;;;1.86;100.00
51439;BME280;38816;51.142;-0.974;2023-01-28T00:31:07;101688.22;;;1.91;100.00
51439;BME280;38816;51.142;-0.974;2023-01-28T00:33:34;101683.59;;;1.86;100.00
51439;BME280;38816;51.142;-0.974;2023-01-28T00:36:00;101672.44;;;1.84;100.00
51439;BME280;38816;51.142;-0.974;2023-01-28T00:38:27;101669.78;;;1.82;100.00
51439;BME280;38816;51.142;-0.974;2023-01-28T00:40:52;101675.75;;;1.83;100.00
51439;BME280;38816;51.142;-0.974;2023-01-28T00:43:18;101682.81;;;1.87;100.00
51439;BME280;38816;51.142;-0.974;2023-01-28T00:45:44;101670.56;;;1.81;100.00
51439;BME280;38816;51.142;-0.974;2023-01-28T00:48:09;101670.69;;;1.83;100.00
51439;BME280;38816;51.142;-0.974;2023-01-28T00:50:35;101677.50;;;1.84;100.00
51439;BME280;38816;51.142;-0.974;2023-01-28T00:53:00;101676.38;;;1.80;100.00
51439;BME280;38816;51.142;-0.974;2023-01-28T00:55:26;101680.19;;;1.85;100.00
51439;BME280;38816;51.142;-0.974;2023-01-28T00:57:52;101669.34;;;1.76;100.00
51439;BME280;38816;51.142;-0.974;2023-01-28T01:00:18;101667.69;;;1.76;100.00
51439;BME280;38816;51.142;-0.974;2023-01-28T01:02:46;101674.44;;;1.88;100.00
51439;BME280;38816;51.142;-0.974;2023-01-28T01:05:11;101671.69;;;1.85;100.00
51439;BME280;38816;51.142;-0.974;2023-01-28T01:07:36;101674.78;;;1.92;100.00
51439;BME280;38816;51.142;-0.974;2023-01-28T01:10:15;101668.03;;;1.93;100.00
51439;BME280;38816;51.142;-0.974;2023-01-28T01:12:42;101680.19;;;1.97;100.00
51439;BME280;38816;51.142;-0.974;2023-01-28T01:15:09;101663.22;;;1.96;100.00
51439;BME280;38816;51.142;-0.974;2023-01-28T01:17:36;101678.31;;;2.06;100.00
51439;BME280;38816;51.142;-0.974;2023-01-28T01:20:04;101665.19;;;2.00;100.00
51439;BME280;38816;51.142;-0.974;2023-01-28T01:22:32;101660.13;;;2.00;100.00
51439;BME280;38816;51.142;-0.974;2023-01-28T01:24:58;101674.91;;;2.06;100.00
51439;BME280;38816;51.142;-0.974;2023-01-28T01:27:23;101672.28;;;2.04;100.00
51439;BME280;38816;51.142;-0.974;2023-01-28T01:29:49;101679.22;;;2.18;100.00
51439;BME280;38816;51.142;-0.974;2023-01-28T01:32:14;101680.44;;;2.23;100.00
51439;BME280;38816;51.142;-0.974;2023-01-28T01:34:39;101680.53;;;2.25;100.00
51439;BME280;38816;51.142;-0.974;2023-01-28T01:37:05;101683.75;;;2.22;100.00
51439;BME280;38816;51.142;-0.974;2023-01-28T01:39:33;101676.03;;;2.21;100.00
51439;BME280;38816;51.142;-0.974;2023-01-28T01:41:58;101667.88;;;2.13;100.00
51439;BME280;38816;51.142;-0.974;2023-01-28T01:47:20;101679.53;;;2.11;100.00
51439;BME280;38816;51.142;-0.974;2023-01-28T01:49:47;101670.28;;;2.00;100.00
51439;BME280;38816;51.142;-0.974;2023-01-28T01:52:17;101677.09;;;2.01;100.00
51439;BME280;38816;51.142;-0.974;2023-01-28T01:54:46;101656.69;;;1.88;100.00
51439;BME280;38816;51.142;-0.974;2023-01-28T01:57:16;101668.19;;;1.94;100.00
51439;BME280;38816;51.142;-0.974;2023-01-28T01:59:45;101660.66;;;1.96;100.00
51439;BME280;38816;51.142;-0.974;2023-01-28T02:02:11;101670.28;;;2.00;100.00
51439;BME280;38816;51.142;-0.974;2023-01-28T02:04:43;101665.50;;;1.93;100.00
51439;BME280;38816;51.142;-0.974;2023-01-28T02:07:12;101684.47;;;1.98;100.00
51439;BME280;38816;51.142;-0.974;2023-01-28T02:09:39;101680.63;;;1.91;100.00
51439;BME280;38816;51.142;-0.974;2023-01-28T02:12:10;101684.03;;;1.92;100.00
51439;BME280;38816;51.142;-0.974;2023-01-28T02:14:41;101677.50;;;1.84;100.00
51439;BME280;38816;51.142;-0.974;2023-01-28T02:17:09;101670.56;;;1.81;100.00
51439;BME280;38816;51.142;-0.974;2023-01-28T02:30:41;101689.19;;;1.82;100.00
51439;BME280;38816;51.142;-0.974;2023-01-28T02:33:13;101701.00;;;1.81;100.00
51439;BME280;38816;51.142;-0.974;2023-01-28T02:35:48;101695.34;;;1.73;100.00
51439;BME280;38816;51.142;-0.974;2023-01-28T02:38:26;101703.28;;;1.78;100.00
51439;BME280;38816;51.142;-0.974;2023-01-28T02:40:57;101683.97;;;1.68;100.00
51439;BME280;38816;51.142;-0.974;2023-01-28T02:43:36;101698.31;;;1.80;100.00
51439;BME280;38816;51.142;-0.974;2023-01-28T02:49:16;101697.09;;;1.74;100.00
51439;BME280;38816;51.142;-0.974;2023-01-28T02:57:18;101707.38;;;1.76;100.00
51439;BME280;38816;51.142;-0.974;2023-01-28T03:00:00;101709.13;;;1.77;100.00
51439;BME280;38816;51.142;-0.974;2023-01-28T03:02:35;101718.84;;;1.83;100.00
51439;BME280;38816;51.142;-0.974;2023-01-28T03:05:05;101726.69;;;1.86;100.00
51439;BME280;38816;51.142;-0.974;2023-01-28T03:07:33;101719.19;;;1.87;100.00
51439;BME280;38816;51.142;-0.974;2023-01-28T03:10:02;101714.03;;;1.86;100.00
51439;BME280;38816;51.142;-0.974;2023-01-28T03:12:31;101724.38;;;1.89;100.00
51439;BME280;38816;51.142;-0.974;2023-01-28T03:15:18;101717.31;;;1.85;100.00
51439;BME280;38816;51.142;-0.974;2023-01-28T03:18:12;101731.22;;;1.90;100.00
51439;BME280;38816;51.142;-0.974;2023-01-28T03:21:11;101712.38;;;1.86;100.00
51439;BME280;38816;51.142;-0.974;2023-01-28T03:24:04;101705.19;;;1.81;100.00
51439;BME280;38816;51.142;-0.974;2023-01-28T03:29:46;101713.00;;;1.84;100.00
51439;BME280;38816;51.142;-0.974;2023-01-28T03:32:32;101723.09;;;1.94;100.00
51439;BME280;38816;51.142;-0.974;2023-01-28T03:35:18;101730.91;;;1.97;100.00
51439;BME280;38816;51.142;-0.974;2023-01-28T03:38:07;101716.31;;;1.83;100.00
51439;BME280;38816;51.142;-0.974;2023-01-28T03:40:57;101730.69;;;1.94;100.00
51439;BME280;38816;51.142;-0.974;2023-01-28T03:43:23;101714.41;;;1.80;100.00
51439;BME280;38816;51.142;-0.974;2023-01-28T03:45:49;101711.47;;;1.86;100.00
51439;BME280;38816;51.142;-0.974;2023-01-28T03:48:21;101728.03;;;1.92;100.00
51439;BME280;38816;51.142;-0.974;2023-01-28T03:50:47;101724.38;;;1.89;100.00
51439;BME280;38816;51.142;-0.974;2023-01-28T03:53:14;101742.25;;;1.90;100.00
51439;BME280;38816;51.142;-0.974;2023-01-28T03:55:41;101726.69;;;1.86;100.00
51439;BME280;38816;51.142;-0.974;2023-01-28T03:58:07;101727.22;;;1.82;100.00
51439;BME280;38816;51.142;-0.974;2023-01-28T04:00:32;101737.81;;;1.88;100.00
51439;BME280;38816;51.142;-0.974;2023-01-28T04:03:03;101732.31;;;1.82;100.00
51439;BME280;38816;51.142;-0.974;2023-01-28T04:05:29;101737.72;;;1.86;100.00
51439;BME280;38816;51.142;-0.974;2023-01-28T04:07:54;101733.00;;;1.91;100.00
51439;BME280;38816;51.142;-0.974;2023-01-28T04:10:20;101735.53;;;1.91;100.00
51439;BME280;38816;51.142;-0.974;2023-01-28T04:12:46;101731.09;;;1.88;100.00
51439;BME280;38816;51.142;-0.974;2023-01-28T04:15:14;101724.69;;;1.82;100.00
51439;BME280;38816;51.142;-0.974;2023-01-28T04:17:46;101734.16;;;1.84;100.00
51439;BME280;38816;51.142;-0.974;2023-01-28T04:20:12;101739.22;;;1.84;100.00
51439;BME280;38816;51.142;-0.974;2023-01-28T04:22:38;101740.16;;;1.85;100.00
51439;BME280;38816;51.142;-0.974;2023-01-28T04:25:03;101745.44;;;1.88;100.00
51439;BME280;38816;51.142;-0.974;2023-01-28T04:27:29;101743.13;;;1.91;100.00
51439;BME280;38816;51.142;-0.974;2023-01-28T04:29:54;101748.09;;;1.89;100.00
51439;BME280;38816;51.142;-0.974;2023-01-28T04:32:20;101750.50;;;1.88;100.00
51439;BME280;38816;51.142;-0.974;2023-01-28T04:34:45;101750.75;;;1.91;100.00
51439;BME280;38816;51.142;-0.974;2023-01-28T04:37:10;101735.72;;;1.82;100.00
51439;BME280;38816;51.142;-0.974;2023-01-28T04:39:36;101743.66;;;1.87;100.00
51439;BME280;38816;51.142;-0.974;2023-01-28T04:42:01;101744.66;;;1.89;100.00
51439;BME280;38816;51.142;-0.974;2023-01-28T04:44:27;101742.88;;;1.88;100.00
51439;BME280;38816;51.142;-0.974;2023-01-28T04:46:52;101745.22;;;1.85;100.00
51439;BME280;38816;51.142;-0.974;2023-01-28T04:49:17;101726.22;;;1.80;100.00
51439;BME280;38816;51.142;-0.974;2023-01-28T04:51:43;101717.63;;;1.77;100.00
51439;BME280;38816;51.142;-0.974;2023-01-28T04:54:08;101706.72;;;1.78;100.00
51439;BME280;38816;51.142;-0.974;2023-01-28T04:56:33;101718.59;;;1.80;100.00
51439;BME280;38816;51.142;-0.974;2023-01-28T04:58:59;101732.41;;;1.83;100.00
51439;BME280;38816;51.142;-0.974;2023-01-28T05:01:35;101735.28;;;1.88;100.00
51439;BME280;38816;51.142;-0.974;2023-01-28T05:04:00;101739.38;;;1.86;100.00
51439;BME280;38816;51.142;-0.974;2023-01-28T05:06:30;101729.75;;;1.82;100.00
51439;BME280;38816;51.142;-0.974;2023-01-28T05:08:55;101720.69;;;1.73;100.00
51439;BME280;38816;51.142;-0.974;2023-01-28T05:11:22;101722.69;;;1.77;100.00
51439;BME280;38816;51.142;-0.974;2023-01-28T05:13:47;101723.47;;;1.76;100.00
51439;BME280;38816;51.142;-0.974;2023-01-28T05:16:12;101713.63;;;1.69;100.00
51439;BME280;38816;51.142;-0.974;2023-01-28T05:18:38;101714.94;;;1.64;100.00
51439;BME280;38816;51.142;-0.974;2023-01-28T05:21:03;101725.53;;;1.70;100.00
51439;BME280;38816;51.142;-0.974;2023-01-28T05:23:29;101701.28;;;1.62;100.00
51439;BME280;38816;51.142;-0.974;2023-01-28T05:25:54;101720.00;;;1.64;100.00
51439;BME280;38816;51.142;-0.974;2023-01-28T05:28:20;101723.94;;;1.61;100.00
51439;BME280;38816;51.142;-0.974;2023-01-28T05:30:45;101720.63;;;1.62;100.00
51439;BME280;38816;51.142;-0.974;2023-01-28T05:33:10;101725.34;;;1.57;100.00
51439;BME280;38816;51.142;-0.974;2023-01-28T05:35:36;101725.34;;;1.57;100.00
51439;BME280;38816;51.142;-0.974;2023-01-28T05:38:01;101707.69;;;1.47;100.00
51439;BME280;38816;51.142;-0.974;2023-01-28T05:40:27;101727.50;;;1.63;100.00
51439;BME280;38816;51.142;-0.974;2023-01-28T05:42:52;101716.13;;;1.58;100.00
51439;BME280;38816;51.142;-0.974;2023-01-28T05:45:18;101727.59;;;1.64;100.00
51439;BME280;38816;51.142;-0.974;2023-01-28T05:47:43;101711.47;;;1.52;100.00
51439;BME280;38816;51.142;-0.974;2023-01-28T05:50:09;101724.81;;;1.61;100.00
51439;BME280;38816;51.142;-0.974;2023-01-28T05:52:36;101736.44;;;1.69;100.00
51439;BME280;38816;51.142;-0.974;2023-01-28T05:55:02;101740.72;;;1.70;100.00
51439;BME280;38816;51.142;-0.974;2023-01-28T05:57:28;101738.97;;;1.69;100.00
51439;BME280;38816;51.142;-0.974;2023-01-28T05:59:53;101732.78;;;1.66;100.00
51439;BME280;38816;51.142;-0.974;2023-01-28T06:02:19;101744.72;;;1.67;100.00
51439;BME280;38816;51.142;-0.974;2023-01-28T06:04:44;101743.06;;;1.67;100.00
51439;BME280;38816;51.142;-0.974;2023-01-28T06:07:09;101750.00;;;1.70;100.00
51439;BME280;38816;51.142;-0.974;2023-01-28T06:09:37;101755.59;;;1.66;100.00
51439;BME280;38816;51.142;-0.974;2023-01-28T06:12:03;101756.25;;;1.63;100.00
51439;BME280;38816;51.142;-0.974;2023-01-28T06:14:28;101746.31;;;1.55;100.00
51439;BME280;38816;51.142;-0.974;2023-01-28T06:16:54;101744.28;;;1.50;100.00
51439;BME280;38816;51.142;-0.974;2023-01-28T06:19:19;101754.25;;;1.59;100.00
51439;BME280;38816;51.142;-0.974;2023-01-28T06:21:44;101747.44;;;1.58;100.00
51439;BME280;38816;51.142;-0.974;2023-01-28T06:24:10;101752.59;;;1.60;100.00
51439;BME280;38816;51.142;-0.974;2023-01-28T06:26:35;101748.66;;;1.63;100.00
51439;BME280;38816;51.142;-0.974;2023-01-28T06:29:01;101754.94;;;1.68;100.00
51439;BME280;38816;51.142;-0.974;2023-01-28T06:31:26;101749.63;;;1.65;100.00
51439;BME280;38816;51.142;-0.974;2023-01-28T06:33:51;101759.25;;;1.69;100.00
51439;BME280;38816;51.142;-0.974;2023-01-28T06:36:17;101746.91;;;1.62;100.00
51439;BME280;38816;51.142;-0.974;2023-01-28T06:38:42;101762.13;;;1.74;100.00
51439;BME280;38816;51.142;-0.974;2023-01-28T06:41:08;101756.19;;;1.73;100.00
51439;BME280;38816;51.142;-0.974;2023-01-28T06:43:33;101743.78;;;1.66;100.00
51439;BME280;38816;51.142;-0.974;2023-01-28T06:45:59;101750.88;;;1.70;100.00
51439;BME280;38816;51.142;-0.974;2023-01-28T06:48:25;101743.78;;;1.66;100.00
51439;BME280;38816;51.142;-0.974;2023-01-28T06:50:51;101739.16;;;1.61;100.00
51439;BME280;38816;51.142;-0.974;2023-01-28T06:53:17;101752.19;;;1.65;100.00
51439;BME280;38816;51.142;-0.974;2023-01-28T06:55:43;101747.25;;;1.67;100.00
51439;BME280;38816;51.142;-0.974;2023-01-28T06:58:08;101757.50;;;1.68;100.00
51439;BME280;38816;51.142;-0.974;2023-01-28T07:00:33;101753.06;;;1.66;100.00
51439;BME280;38816;51.142;-0.974;2023-01-28T07:02:59;101756.47;;;1.66;100.00
51439;BME280;38816;51.142;-0.974;2023-01-28T07:05:25;101760.81;;;1.67;100.00
51439;BME280;38816;51.142;-0.974;2023-01-28T07:07:50;101753.31;;;1.69;100.00
51439;BME280;38816;51.142;-0.974;2023-01-28T07:10:16;101755.72;;;1.67;100.00
51439;BME280;38816;51.142;-0.974;2023-01-28T07:12:41;101757.59;;;1.70;100.00
51439;BME280;38816;51.142;-0.974;2023-01-28T07:15:07;101744.34;;;1.62;100.00
51439;BME280;38816;51.142;-0.974;2023-01-28T07:17:37;101753.94;;;1.66;100.00
51439;BME280;38816;51.142;-0.974;2023-01-28T07:20:04;101757.13;;;1.64;100.00
51439;BME280;38816;51.142;-0.974;2023-01-28T07:22:29;101757.66;;;1.60;100.00
51439;BME280;38816;51.142;-0.974;2023-01-28T07:24:54;101739.84;;;1.48;100.00
51439;BME280;38816;51.142;-0.974;2023-01-28T07:27:20;101758.63;;;1.50;100.00
51439;BME280;38816;51.142;-0.974;2023-01-28T07:29:45;101746.00;;;1.40;100.00
51439;BME280;38816;51.142;-0.974;2023-01-28T07:32:10;101752.59;;;1.38;100.00
51439;BME280;38816;51.142;-0.974;2023-01-28T07:34:36;101756.78;;;1.37;100.00
51439;BME280;38816;51.142;-0.974;2023-01-28T07:37:04;101770.59;;;1.41;100.00
51439;BME280;38816;51.142;-0.974;2023-01-28T07:39:30;101760.72;;;1.34;100.00
51439;BME280;38816;51.142;-0.974;2023-01-28T07:41:56;101764.03;;;1.33;100.00
51439;BME280;38816;51.142;-0.974;2023-01-28T07:44:21;101768.09;;;1.31;100.00
51439;BME280;38816;51.142;-0.974;2023-01-28T07:46:46;101762.78;;;1.27;100.00
51439;BME280;38816;51.142;-0.974;2023-01-28T07:49:12;101765.56;;;1.31;100.00
51439;BME280;38816;51.142;-0.974;2023-01-28T07:51:37;101767.44;;;1.33;100.00
51439;BME280;38816;51.142;-0.974;2023-01-28T07:54:03;101770.69;;;1.42;100.00
51439;BME280;38816;51.142;-0.974;2023-01-28T07:56:30;101766.38;;;1.41;100.00
51439;BME280;38816;51.142;-0.974;2023-01-28T07:58:55;101769.28;;;1.46;100.00
51439;BME280;38816;51.142;-0.974;2023-01-28T08:01:20;101769.03;;;1.43;100.00
51439;BME280;38816;51.142;-0.974;2023-01-28T08:03:46;101791.56;;;1.50;100.00
51439;BME280;38816;51.142;-0.974;2023-01-28T08:06:11;101770.59;;;1.41;100.00
51439;BME280;38816;51.142;-0.974;2023-01-28T08:08:37;101775.66;;;1.41;100.00
51439;BME280;38816;51.142;-0.974;2023-01-28T08:11:07;101782.72;;;1.45;100.00
51439;BME280;38816;51.142;-0.974;2023-01-28T08:13:33;101787.00;;;1.46;100.00
51439;BME280;38816;51.142;-0.974;2023-01-28T08:15:59;101777.31;;;1.40;100.00
51439;BME280;38816;51.142;-0.974;2023-01-28T08:18:24;101790.53;;;1.48;100.00
51439;BME280;38816;51.142;-0.974;2023-01-28T08:20:54;101775.22;;;1.46;100.00
51439;BME280;38816;51.142;-0.974;2023-01-28T08:23:20;101771.91;;;1.47;100.00
51439;BME280;38816;51.142;-0.974;2023-01-28T08:25:46;101775.06;;;1.55;100.00
51439;BME280;38816;51.142;-0.974;2023-01-28T08:28:13;101766.22;;;1.50;100.00
51439;BME280;38816;51.142;-0.974;2023-01-28T08:30:39;101771.50;;;1.53;100.00
51439;BME280;38816;51.142;-0.974;2023-01-28T08:33:07;101779.59;;;1.59;100.00
51439;BME280;38816;51.142;-0.974;2023-01-28T08:35:33;101774.28;;;1.56;100.00
51439;BME280;38816;51.142;-0.974;2023-01-28T08:38:00;101789.84;;;1.61;100.00
51439;BME280;38816;51.142;-0.974;2023-01-28T08:40:26;101779.25;;;1.55;100.00
51439;BME280;38816;51.142;-0.974;2023-01-28T08:42:52;101787.19;;;1.59;100.00
51439;BME280;38816;51.142;-0.974;2023-01-28T08:45:20;101793.41;;;1.63;100.00
51439;BME280;38816;51.142;-0.974;2023-01-28T08:47:54;101773.75;;;1.60;100.00
51439;BME280;38816;51.142;-0.974;2023-01-28T08:50:21;101780.06;;;1.65;100.00
51439;BME280;38816;51.142;-0.974;2023-01-28T08:52:47;101780.06;;;1.65;100.00
51439;BME280;38816;51.142;-0.974;2023-01-28T08:55:14;101778.66;;;1.69;100.00
51439;BME280;38816;51.142;-0.974;2023-01-28T08:57:40;101787.72;;;1.77;100.00
51439;BME280;38816;51.142;-0.974;2023-01-28T09:00:08;101795.16;;;1.86;100.00
51439;BME280;38816;51.142;-0.974;2023-01-28T09:02:35;101791.41;;;1.92;100.00
51439;BME280;38816;51.142;-0.974;2023-01-28T09:05:01;101800.03;;;1.94;100.00
51439;BME280;38816;51.142;-0.974;2023-01-28T09:07:26;101792.66;;;1.97;100.00
51439;BME280;38816;51.142;-0.974;2023-01-28T09:09:52;101797.31;;;2.03;100.00
51439;BME280;38816;51.142;-0.974;2023-01-28T09:12:17;101803.47;;;2.07;100.00
51439;BME280;38816;51.142;-0.974;2023-01-28T09:14:42;101813.88;;;2.10;100.00
51439;BME280;38816;51.142;-0.974;2023-01-28T09:17:08;101814.88;;;2.12;100.00
51439;BME280;38816;51.142;-0.974;2023-01-28T09:19:33;101804.59;;;2.10;100.00
51439;BME280;38816;51.142;-0.974;2023-01-28T09:21:59;101821.06;;;2.15;100.00
51439;BME280;38816;51.142;-0.974;2023-01-28T09:24:24;101809.38;;;2.17;100.00
51439;BME280;38816;51.142;-0.974;2023-01-28T09:26:50;101815.22;;;2.16;100.00
51439;BME280;38816;51.142;-0.974;2023-01-28T09:29:15;101816.22;;;2.18;100.00
51439;BME280;38816;51.142;-0.974;2023-01-28T09:31:41;101819.19;;;2.24;100.00
51439;BME280;38816;51.142;-0.974;2023-01-28T09:34:07;101822.28;;;2.20;100.00
51439;BME280;38816;51.142;-0.974;2023-01-28T09:36:33;101822.53;;;2.23;100.00
51439;BME280;38816;51.142;-0.974;2023-01-28T09:38:59;101818.66;;;2.28;100.00
51439;BME280;38816;51.142;-0.974;2023-01-28T09:41:27;101816.81;;;2.38;100.00
51439;BME280;38816;51.142;-0.974;2023-01-28T09:44:22;101837.78;;;2.47;100.00
51439;BME280;38816;51.142;-0.974;2023-01-28T09:46:52;101843.13;;;2.50;100.00
51439;BME280;38816;51.142;-0.974;2023-01-28T09:52:01;101831.69;;;2.67;100.00
51439;BME280;38816;51.142;-0.974;2023-01-28T09:57:17;101803.00;;;2.79;100.00
51439;BME280;38816;51.142;-0.974;2023-01-28T09:59:44;101831.72;;;3.02;100.00
51439;BME280;38816;51.142;-0.974;2023-01-28T10:07:47;101827.06;;;3.20;100.00
51439;BME280;38816;51.142;-0.974;2023-01-28T10:10:26;101822.72;;;3.30;100.00
51439;BME280;38816;51.142;-0.974;2023-01-28T10:16:05;101819.50;;;3.45;100.00
51439;BME280;38816;51.142;-0.974;2023-01-28T10:18:44;101808.53;;;3.46;99.59
51439;BME280;38816;51.142;-0.974;2023-01-28T10:21:36;101812.41;;;3.52;99.29
51439;BME280;38816;51.142;-0.974;2023-01-28T10:24:30;101804.09;;;3.55;95.71
51439;BME280;38816;51.142;-0.974;2023-01-28T10:26:58;101802.97;;;3.63;96.50
51439;BME280;38816;51.142;-0.974;2023-01-28T10:29:26;101804.63;;;3.74;97.80
51439;BME280;38816;51.142;-0.974;2023-01-28T10:32:04;101804.38;;;3.83;97.87
51439;BME280;38816;51.142;-0.974;2023-01-28T10:34:30;101812.63;;;3.92;96.99
51439;BME280;38816;51.142;-0.974;2023-01-28T10:36:56;101796.09;;;3.99;95.58
51439;BME280;38816;51.142;-0.974;2023-01-28T10:39:23;101784.25;;;3.99;95.50
51439;BME280;38816;51.142;-0.974;2023-01-28T10:41:49;101781.44;;;4.08;96.81
51439;BME280;38816;51.142;-0.974;2023-01-28T10:46:56;101787.78;;;4.26;95.85
51439;BME280;38816;51.142;-0.974;2023-01-28T10:49:28;101765.44;;;4.22;93.56
51439;BME280;38816;51.142;-0.974;2023-01-28T10:51:55;101760.56;;;4.25;90.78
51439;BME280;38816;51.142;-0.974;2023-01-28T10:54:25;101781.41;;;4.20;88.78
51439;BME280;38816;51.142;-0.974;2023-01-28T10:56:53;101781.19;;;4.17;88.57
51439;BME280;38816;51.142;-0.974;2023-01-28T10:59:25;101763.06;;;4.12;89.98
51439;BME280;38816;51.142;-0.974;2023-01-28T11:01:55;101746.66;;;4.20;91.68
51439;BME280;38816;51.142;-0.974;2023-01-28T11:04:29;101753.63;;;4.36;91.04
51439;BME280;38816;51.142;-0.974;2023-01-28T11:09:26;101732.19;;;4.59;88.80
51439;BME280;38816;51.142;-0.974;2023-01-28T11:11:52;101735.22;;;4.53;86.85
51439;BME280;38816;51.142;-0.974;2023-01-28T11:14:23;101719.16;;;4.41;86.68
51439;BME280;38816;51.142;-0.974;2023-01-28T11:16:50;101722.78;;;4.45;86.48
51439;BME280;38816;51.142;-0.974;2023-01-28T11:19:18;101727.50;;;4.52;86.86
51439;BME280;38816;51.142;-0.974;2023-01-28T11:21:51;101713.91;;;4.51;86.47
51439;BME280;38816;51.142;-0.974;2023-01-28T11:24:30;101706.72;;;4.59;86.47
51439;BME280;38816;51.142;-0.974;2023-01-28T11:27:00;101711.22;;;4.63;84.80
51439;BME280;38816;51.142;-0.974;2023-01-28T11:29:38;101707.34;;;4.55;82.95
51439;BME280;38816;51.142;-0.974;2023-01-28T11:32:04;101715.66;;;4.66;83.54
51439;BME280;38816;51.142;-0.974;2023-01-28T11:34:33;101704.00;;;4.69;84.43
51439;BME280;38816;51.142;-0.974;2023-01-28T11:37:20;101702.03;;;4.78;84.84
51439;BME280;38816;51.142;-0.974;2023-01-28T11:39:46;101723.06;;;4.89;82.85
51439;BME280;38816;51.142;-0.974;2023-01-28T11:42:18;101724.97;;;4.78;81.60
51439;BME280;38816;51.142;-0.974;2023-01-28T11:44:45;101712.00;;;4.75;82.89
51439;BME280;38816;51.142;-0.974;2023-01-28T11:49:52;101725.91;;;4.94;83.05
51439;BME280;38816;51.142;-0.974;2023-01-28T12:00:47;101727.25;;;5.15;83.64
51439;BME280;38816;51.142;-0.974;2023-01-28T12:33:51;101754.44;;;5.01;85.61
51439;BME280;38816;51.142;-0.974;2023-01-28T12:44:47;101730.72;;;5.02;85.72
51439;BME280;38816;51.142;-0.974;2023-01-28T12:47:25;101720.78;;;5.07;86.23
51439;BME280;38816;51.142;-0.974;2023-01-28T12:49:55;101724.44;;;5.11;86.48
51439;BME280;38816;51.142;-0.974;2023-01-28T12:52:31;101723.53;;;5.10;86.63
51439;BME280;38816;51.142;-0.974;2023-01-28T12:55:10;101729.00;;;5.16;85.90
51439;BME280;38816;51.142;-0.974;2023-01-28T12:57:39;101707.47;;;5.11;85.31
51439;BME280;38816;51.142;-0.974;2023-01-28T13:00:32;101724.59;;;5.27;85.91
51439;BME280;38816;51.142;-0.974;2023-01-28T13:03:24;101730.38;;;5.24;84.41
51439;BME280;38816;51.142;-0.974;2023-01-28T13:05:59;101726.06;;;5.23;82.69
51439;BME280;38816;51.142;-0.974;2023-01-28T13:08:26;101720.56;;;5.17;81.75
51439;BME280;38816;51.142;-0.974;2023-01-28T13:10:54;101715.50;;;5.04;81.92
51439;BME280;38816;51.142;-0.974;2023-01-28T13:13:37;101706.09;;;5.03;82.20
51439;BME280;38816;51.142;-0.974;2023-01-28T13:16:07;101709.34;;;5.14;82.00
51439;BME280;38816;51.142;-0.974;2023-01-28T13:18:40;101712.16;;;5.18;80.98
51439;BME280;38816;51.142;-0.974;2023-01-28T13:24:01;101703.31;;;5.13;79.87
51439;BME280;38816;51.142;-0.974;2023-01-28T13:29:08;101684.44;;;5.10;82.98
51439;BME280;38816;51.142;-0.974;2023-01-28T13:31:44;101682.63;;;5.22;81.54
51439;BME280;38816;51.142;-0.974;2023-01-28T13:36:55;101669.00;;;5.49;81.48
51439;BME280;38816;51.142;-0.974;2023-01-28T13:39:23;101674.09;;;5.49;81.33
51439;BME280;38816;51.142;-0.974;2023-01-28T13:41:53;101678.75;;;5.56;82.13
51439;BME280;38816;51.142;-0.974;2023-01-28T13:44:31;101668.91;;;5.48;81.40
51439;BME280;38816;51.142;-0.974;2023-01-28T13:47:11;101676.25;;;5.28;81.53
51439;BME280;38816;51.142;-0.974;2023-01-28T13:49:43;101668.03;;;5.19;83.06
51439;BME280;38816;51.142;-0.974;2023-01-28T13:54:47;101670.91;;;5.39;84.02
51439;BME280;38816;51.142;-0.974;2023-01-28T14:13:32;101685.31;;;5.10;87.57
51439;BME280;38816;51.142;-0.974;2023-01-28T14:16:35;101682.66;;;5.08;85.99
51439;BME280;38816;51.142;-0.974;2023-01-28T14:18:56;101690.56;;;5.13;87.52
51439;BME280;38816;51.142;-0.974;2023-01-28T14:21:26;101689.81;;;5.14;87.81
51439;BME280;38816;51.142;-0.974;2023-01-28T14:23:54;101682.44;;;5.19;88.01
51439;BME280;38816;51.142;-0.974;2023-01-28T14:26:35;101671.75;;;5.24;87.47
51439;BME280;38816;51.142;-0.974;2023-01-28T14:31:42;101678.53;;;5.11;88.14
51439;BME280;38816;51.142;-0.974;2023-01-28T14:34:30;101683.84;;;5.14;87.97
51439;BME280;38816;51.142;-0.974;2023-01-28T14:37:05;101681.38;;;5.15;88.82
51439;BME280;38816;51.142;-0.974;2023-01-28T14:39:40;101658.34;;;5.14;89.83
51439;BME280;38816;51.142;-0.974;2023-01-28T14:42:13;101656.47;;;5.11;88.91
51439;BME280;38816;51.142;-0.974;2023-01-28T14:44:43;101654.28;;;5.17;90.33
51439;BME280;38816;51.142;-0.974;2023-01-28T14:50:36;101665.59;;;5.07;89.46
51439;BME280;38816;51.142;-0.974;2023-01-28T14:55:52;101670.81;;;5.09;89.30
51439;BME280;38816;51.142;-0.974;2023-01-28T14:58:30;101663.47;;;5.00;88.61
51439;BME280;38816;51.142;-0.974;2023-01-28T15:00:59;101664.09;;;4.96;88.83
51439;BME280;38816;51.142;-0.974;2023-01-28T15:03:26;101657.91;;;4.93;88.28